Saint Peters, PA (19470)

8:29 PM EDT on July 05, 2015 (GMT -0400)
North Coventry Township | | Change Station
CLOSE
Current Station
Personal Weather Station
Location: Pottstown, PA
Elevation: 394 ft
Nearby Weather Stations

Elev 394 ft 40.21 °N, 75.69 °W | Updated 9 minutes ago

Partly Cloudy
Partly Cloudy
73.5 °F
Feels Like 72 °F
N
0.0
Wind Variable Wind from NW
Gusts 0.0 mph

Today
High -- | Low -- °F
--% Chance of Precip.
Yesterday
High -- | Low -- °F
Precip. -- in
5:39 AM 8:35 PM
Waning Gibbous, 81% visible
Pressure 30.12 in
Visibility 10.0 miles
Clouds Mostly Cloudy 3900 ft
Mostly Cloudy 5000 ft
Heat Index 72 °F
Dew Point 70 °F
Humidity 89%
Rainfall 0.00 in
Snow Depth Not available.
UV 0 out of 12
Pollen 3.40 out of 12
Air Quality Not available.
Flu Activity Not available.
METAR KPTW 052354Z AUTO 00000KT 10SM BKN039 BKN050 25/19 A3014 RMK AO2 SLP200 T02500194 10272 20250 53002

More Conditions Fewer Conditions

Pressure 30.12 in
Visibility 10.0 miles
Clouds Mostly Cloudy 3900 ft
Mostly Cloudy 5000 ft
Heat Index 72 °F
Dew Point 70 °F
Humidity 89%
Rainfall 0.00 in
Snow Depth Not available.
UV 0 out of 12
Pollen 3.40 out of 12
Air Quality Not available.
Flu Activity Not available.
METAR KPTW 052354Z AUTO 00000KT 10SM BKN039 BKN050 25/19 A3014 RMK AO2 SLP200 T02500194 10272 20250 53002

More Conditions Fewer Conditions

10-Day Weather Forecast

×

Almanac

Astronomy

Jul. 05, 2015 Rise Set
Actual Time
Civil Twilight
Nautical Twilight
Astronomical Twilight
Moon
Length of Visible Light
Length of Day
Tomorrow will be .
, % of the Moon is Illuminated

Today's Extremes

State Highs State Lows

Community

WunderPhotos

Upload Photos

1,835,430 photos uploaded!

WunderBlogs® & News

Nearby

Air Quality

  Air Quality AQ Index Pollutant
Not available.

Snow Depth

Station Depth Elevation

Earthquake Activity

City Distance Mag. Time & Date
Minimum magnitude displayed is 2.5.

Coastal Water Temperatures

Place Temperature

Stations

Nearby Weather Stations

Station Location Temp. Windchill Dew Point Humidity Wind Precip. Elev Updated Type